createdAt,value
2019-05-20T00:00:24.905Z,99570.06
2019-05-20T00:02:54.850Z,99568.33
2019-05-20T00:05:24.501Z,99563.05
2019-05-20T00:07:54.274Z,99560.48
2019-05-20T00:10:23.722Z,99551.63
2019-05-20T00:12:53.555Z,99557.91
2019-05-20T00:15:23.036Z,99561.07
2019-05-20T00:17:52.545Z,99557.13
2019-05-20T00:20:22.479Z,99560.69
2019-05-20T00:22:52.050Z,99560.29
2019-05-20T00:25:21.620Z,99557.67
2019-05-20T00:27:51.368Z,99556.38
2019-05-20T00:30:21.482Z,99563.55
2019-05-20T00:32:51.357Z,99568.05
2019-05-20T00:35:21.379Z,99569.38
2019-05-20T00:37:50.836Z,99564.94
2019-05-20T00:40:20.412Z,99562.81
2019-05-20T00:42:49.916Z,99568.23
2019-05-20T00:45:19.500Z,99570.50
2019-05-20T00:47:50.187Z,99582.52
2019-05-20T00:50:19.701Z,99578.70
2019-05-20T00:52:49.266Z,99577.06
2019-05-20T00:55:24.648Z,99578.45
2019-05-20T00:57:54.155Z,99580.67
2019-05-20T01:00:24.258Z,99580.67
2019-05-20T01:02:56.785Z,99579.42
2019-05-20T01:05:26.068Z,99583.92
2019-05-20T01:07:55.574Z,99587.52
2019-05-20T01:10:25.099Z,99579.13
2019-05-20T01:12:55.030Z,99576.54
2019-05-20T01:15:24.622Z,99579.74
2019-05-20T01:17:54.141Z,99585.12
2019-05-20T01:20:23.607Z,99579.88
2019-05-20T01:22:53.176Z,99577.75
2019-05-20T01:25:22.651Z,99582.28
2019-05-20T01:27:52.226Z,99577.00
2019-05-20T01:30:22.117Z,99576.19
2019-05-20T01:32:51.641Z,99574.45
2019-05-20T01:35:21.152Z,99580.73
2019-05-20T01:37:50.613Z,99578.55
2019-05-20T01:40:20.626Z,99576.45
2019-05-20T01:42:50.084Z,99575.65
2019-05-20T01:45:19.682Z,99578.84
2019-05-20T01:47:49.202Z,99581.64
2019-05-20T01:50:18.789Z,99578.25
2019-05-20T01:52:48.245Z,99572.11
2019-05-20T01:55:17.856Z,99568.60
2019-05-20T01:57:47.369Z,99574.83
2019-05-20T02:00:17.221Z,99564.66
2019-05-20T02:02:46.746Z,99566.11
2019-05-20T02:05:16.313Z,99572.41
2019-05-20T02:07:45.772Z,99572.05
2019-05-20T02:10:15.678Z,99567.27
2019-05-20T02:12:45.191Z,99567.80
2019-05-20T02:15:28.986Z,99570.47
2019-05-20T02:17:58.937Z,99574.54
2019-05-20T02:20:28.404Z,99570.14
2019-05-20T02:23:16.837Z,99566.67
2019-05-20T02:25:48.700Z,99569.84
2019-05-20T02:28:18.351Z,99571.25
2019-05-20T02:30:47.832Z,99566.45
2019-05-20T02:33:17.338Z,99566.02
2019-05-20T02:35:46.793Z,99558.53
2019-05-20T02:38:16.299Z,99551.03
2019-05-20T02:40:45.823Z,99548.41
2019-05-20T02:43:15.554Z,99550.22
2019-05-20T02:45:45.080Z,99547.16
2019-05-20T02:48:14.721Z,99549.45
2019-05-20T02:50:44.494Z,99550.41
2019-05-20T02:53:14.004Z,99556.63
2019-05-20T02:55:43.957Z,99567.75
2019-05-20T02:58:13.831Z,99563.87
2019-05-20T03:00:43.420Z,99557.73
2019-05-20T03:03:12.922Z,99559.95
2019-05-20T03:05:42.806Z,99557.32
2019-05-20T03:08:12.393Z,99560.94
2019-05-20T03:10:42.584Z,99557.84
2019-05-20T03:13:13.153Z,99560.53
2019-05-20T03:15:42.678Z,99565.41
2019-05-20T03:18:12.200Z,99568.07
2019-05-20T03:20:41.724Z,99566.27
2019-05-20T03:23:11.397Z,99561.05
2019-05-20T03:25:41.044Z,99565.52
2019-05-20T03:28:10.878Z,99559.78
2019-05-20T03:30:40.805Z,99554.53
2019-05-20T03:33:10.622Z,99553.75
2019-05-20T03:35:40.162Z,99561.25
2019-05-20T03:38:09.609Z,99554.57
2019-05-20T03:40:39.171Z,99562.04
2019-05-20T03:43:09.002Z,99554.91
2019-05-20T03:45:38.611Z,99561.49
2019-05-20T03:48:08.055Z,99560.13
2019-05-20T03:50:37.563Z,99555.72
2019-05-20T03:53:07.080Z,99555.31
2019-05-20T03:55:36.622Z,99556.31
2019-05-20T03:58:06.076Z,99544.84
2019-05-20T04:00:48.414Z,99550.27
2019-05-20T04:03:18.107Z,99555.52
2019-05-20T04:05:47.630Z,99552.76
2019-05-20T04:08:17.157Z,99555.25
2019-05-20T04:10:46.751Z,99565.27
2019-05-20T04:13:16.419Z,99564.20
2019-05-20T04:15:45.890Z,99564.53
2019-05-20T04:18:16.816Z,99569.70
2019-05-20T04:20:46.329Z,99563.75
2019-05-20T04:23:15.850Z,99561.38
2019-05-20T04:25:45.385Z,99565.70
2019-05-20T04:28:14.977Z,99560.29
2019-05-20T04:30:44.560Z,99560.63
2019-05-20T04:33:14.113Z,99568.01
2019-05-20T04:35:43.574Z,99566.55
2019-05-20T04:38:13.421Z,99568.16
2019-05-20T04:40:43.253Z,99568.55
2019-05-20T04:43:13.256Z,99567.59
2019-05-20T04:45:43.052Z,99568.39
2019-05-20T04:48:13.909Z,99566.93
2019-05-20T04:50:43.671Z,99560.98
2019-05-20T04:53:13.145Z,99559.92
2019-05-20T04:55:42.980Z,99561.09
2019-05-20T04:58:12.899Z,99564.45
2019-05-20T05:00:56.517Z,99561.13
2019-05-20T05:03:26.041Z,99566.23
2019-05-20T05:05:55.992Z,99563.28
2019-05-20T05:08:25.784Z,99562.06
2019-05-20T05:10:55.496Z,99564.00
2019-05-20T05:13:25.426Z,99561.48
2019-05-20T05:15:55.103Z,99565.66
2019-05-20T05:18:24.623Z,99560.66
2019-05-20T05:20:54.204Z,99563.69
2019-05-20T05:23:24.428Z,99561.06
2019-05-20T05:25:54.105Z,99568.23
2019-05-20T05:28:23.722Z,99564.73
2019-05-20T05:30:53.552Z,99569.58
2019-05-20T05:33:23.008Z,99566.01
2019-05-20T05:35:53.756Z,99569.42
2019-05-20T05:38:23.835Z,99557.85
2019-05-20T05:40:53.353Z,99571.64
2019-05-20T05:43:22.861Z,99561.50
2019-05-20T05:45:52.428Z,99571.09
2019-05-20T05:48:22.154Z,99584.35
2019-05-20T05:50:51.975Z,99582.13
2019-05-20T05:53:21.497Z,99581.67
2019-05-20T05:55:50.959Z,99577.52
2019-05-20T05:58:20.495Z,99571.08
2019-05-20T06:00:49.940Z,99580.33
2019-05-20T06:03:20.220Z,99583.83
2019-05-20T06:05:49.661Z,99588.97
2019-05-20T06:08:19.281Z,99589.34
2019-05-20T06:10:48.845Z,99584.30
2019-05-20T06:13:18.408Z,99583.03
2019-05-20T06:15:48.265Z,99584.10
2019-05-20T06:18:17.822Z,99588.01
2019-05-20T06:20:47.343Z,99582.52
2019-05-20T06:23:17.872Z,99590.91
2019-05-20T06:25:47.423Z,99600.27
2019-05-20T06:28:16.980Z,99599.14
2019-05-20T06:30:48.196Z,99598.64
2019-05-20T06:33:18.791Z,99600.75
2019-05-20T06:35:48.392Z,99600.19
2019-05-20T06:38:19.853Z,99601.20
2019-05-20T06:40:50.339Z,99601.30
2019-05-20T06:43:19.900Z,99598.31
2019-05-20T06:45:49.373Z,99597.06
2019-05-20T06:48:18.900Z,99592.36
2019-05-20T06:50:48.329Z,99593.25
2019-05-20T06:53:17.783Z,99591.09
2019-05-20T06:55:47.291Z,99588.15
2019-05-20T06:58:17.213Z,99586.89
2019-05-20T07:00:46.772Z,99584.41
2019-05-20T07:03:16.235Z,99584.58
2019-05-20T07:05:45.888Z,99584.02
2019-05-20T07:08:15.407Z,99584.38
2019-05-20T07:10:45.382Z,99586.31
2019-05-20T07:13:16.355Z,99592.87
2019-05-20T07:15:46.149Z,99593.94
2019-05-20T07:18:15.662Z,99595.98
2019-05-20T07:20:45.472Z,99599.57
2019-05-20T07:23:14.995Z,99601.42
2019-05-20T07:25:44.615Z,99601.44
2019-05-20T07:28:14.171Z,99604.63
2019-05-20T07:30:43.655Z,99611.90
2019-05-20T07:33:13.424Z,99605.13
2019-05-20T07:35:43.007Z,99600.98
2019-05-20T07:38:12.563Z,99603.36
2019-05-20T07:40:42.122Z,99600.24
2019-05-20T07:43:11.982Z,99604.06
2019-05-20T07:45:42.743Z,99601.67
2019-05-20T07:48:12.850Z,99602.64
2019-05-20T07:50:43.752Z,99607.48
2019-05-20T07:53:13.843Z,99604.66
2019-05-20T07:56:00.276Z,99598.80
2019-05-20T07:58:33.662Z,99597.96
2019-05-20T08:01:04.146Z,99601.70
2019-05-20T08:03:38.438Z,99603.16
2019-05-20T08:06:05.912Z,99611.24
2019-05-20T08:08:35.439Z,99605.86
2019-05-20T08:11:05.323Z,99606.69
2019-05-20T08:13:34.896Z,99605.33
2019-05-20T08:16:04.499Z,99602.66
2019-05-20T08:18:35.369Z,99605.88
2019-05-20T08:21:05.369Z,99604.78
2019-05-20T08:23:34.926Z,99596.98
2019-05-20T08:26:04.519Z,99605.33
2019-05-20T08:28:34.605Z,99603.15
2019-05-20T08:31:04.148Z,99600.78
2019-05-20T08:33:34.208Z,99605.31
2019-05-20T08:36:03.901Z,99609.16
2019-05-20T08:38:33.855Z,99602.48
2019-05-20T08:41:03.310Z,99606.93
2019-05-20T08:43:32.914Z,99601.66
2019-05-20T08:46:02.379Z,99606.73
2019-05-20T08:48:32.027Z,99600.12
2019-05-20T08:51:01.882Z,99604.36
2019-05-20T08:53:31.388Z,99601.94
2019-05-20T08:56:00.935Z,99595.05
2019-05-20T08:58:30.394Z,99593.17
2019-05-20T09:00:59.886Z,99594.98
2019-05-20T09:03:30.544Z,99591.13
2019-05-20T09:06:01.646Z,99602.97
2019-05-20T09:08:31.437Z,99599.78
2019-05-20T09:11:01.016Z,99592.46
2019-05-20T09:13:30.553Z,99594.87
2019-05-20T09:16:00.464Z,99601.41
2019-05-20T09:18:30.434Z,99603.35
2019-05-20T09:21:00.049Z,99597.44
2019-05-20T09:23:29.523Z,99602.05
2019-05-20T09:25:59.650Z,99597.83
2019-05-20T09:28:29.254Z,99593.45
2019-05-20T09:30:58.753Z,99594.64
2019-05-20T09:33:28.447Z,99593.55
2019-05-20T09:35:58.240Z,99585.77
2019-05-20T09:38:27.785Z,99582.20
2019-05-20T09:40:57.726Z,99583.80
2019-05-20T09:43:27.614Z,99572.92
2019-05-20T09:46:07.679Z,99573.72
2019-05-20T09:48:28.328Z,99574.44
2019-05-20T09:50:57.874Z,99573.33
2019-05-20T09:55:55.827Z,99579.37
2019-05-20T09:58:25.405Z,99573.80
2019-05-20T10:00:54.890Z,99570.79
2019-05-20T10:03:24.386Z,99567.85
2019-05-20T10:05:53.867Z,99570.23
2019-05-20T10:08:37.502Z,99576.08
2019-05-20T10:10:59.412Z,99568.16
2019-05-20T10:13:26.125Z,99576.17
2019-05-20T10:15:55.589Z,99573.09
2019-05-20T10:18:36.884Z,99576.34
2019-05-20T10:20:56.292Z,99584.93
2019-05-20T10:23:25.898Z,99578.02
2019-05-20T10:25:55.364Z,99582.68
2019-05-20T10:28:25.377Z,99575.78
2019-05-20T10:30:54.915Z,99577.81
2019-05-20T10:33:24.474Z,99571.73
2019-05-20T10:35:53.955Z,99572.77
2019-05-20T10:38:23.952Z,99574.77
2019-05-20T10:40:54.306Z,99564.98
2019-05-20T10:43:23.922Z,99570.72
2019-05-20T10:45:53.752Z,99573.66
2019-05-20T10:48:23.346Z,99567.14
2019-05-20T10:50:52.863Z,99568.34
2019-05-20T10:53:22.475Z,99565.73
2019-05-20T10:55:52.411Z,99568.76
2019-05-20T10:58:21.931Z,99565.41
2019-05-20T11:01:02.336Z,99562.42
2019-05-20T11:03:22.709Z,99565.59
2019-05-20T11:05:52.233Z,99558.98
2019-05-20T11:08:21.758Z,99563.41
2019-05-20T11:10:51.378Z,99562.70
2019-05-20T11:13:20.899Z,99557.34
2019-05-20T11:15:50.394Z,99558.86
2019-05-20T11:18:19.881Z,99557.20
2019-05-20T11:20:49.385Z,99570.83
2019-05-20T11:23:18.913Z,99556.77
2019-05-20T11:25:48.426Z,99547.19
2019-05-20T11:28:17.882Z,99548.66
2019-05-20T11:30:47.400Z,99545.59
2019-05-20T11:33:16.928Z,99555.27
2019-05-20T11:35:46.745Z,99542.90
2019-05-20T11:38:16.256Z,99542.92
2019-05-20T11:40:46.835Z,99538.83
2019-05-20T11:43:16.800Z,99539.86
2019-05-20T11:45:46.322Z,99538.37
2019-05-20T11:48:15.900Z,99540.15
2019-05-20T11:50:45.337Z,99544.01
2019-05-20T11:53:14.965Z,99535.89
2019-05-20T11:55:45.425Z,99535.31
2019-05-20T11:58:16.354Z,99527.29
2019-05-20T12:00:46.321Z,99519.56
2019-05-20T12:03:15.797Z,99514.26
2019-05-20T12:05:45.408Z,99522.05
2019-05-20T12:08:14.936Z,99512.87
2019-05-20T12:10:44.974Z,99514.69
2019-05-20T12:13:14.417Z,99504.02
2019-05-20T12:15:44.120Z,99498.67
2019-05-20T12:18:13.648Z,99499.16
2019-05-20T12:20:43.209Z,99489.06
2019-05-20T12:23:12.659Z,99488.66
2019-05-20T12:25:42.201Z,99488.30
2019-05-20T12:28:11.827Z,99485.47
2019-05-20T12:30:41.732Z,99477.16
2019-05-20T12:33:19.711Z,99476.47
2019-05-20T12:35:42.361Z,99462.44
2019-05-20T12:38:12.184Z,99457.59
2019-05-20T12:40:41.974Z,99456.70
2019-05-20T12:43:11.538Z,99459.28
2019-05-20T12:45:41.191Z,99459.83
2019-05-20T12:48:10.715Z,99459.80
2019-05-20T12:50:40.163Z,99445.19
2019-05-20T12:53:10.057Z,99439.13
2019-05-20T12:55:39.575Z,99443.28
2019-05-20T12:58:09.246Z,99441.41
2019-05-20T13:00:39.094Z,99433.67
2019-05-20T13:03:08.611Z,99432.11
2019-05-20T13:05:39.129Z,99439.03
2019-05-20T13:08:08.917Z,99440.80
2019-05-20T13:10:38.386Z,99435.17
2019-05-20T13:13:08.284Z,99436.91
2019-05-20T13:15:37.733Z,99432.45
2019-05-20T13:18:08.712Z,99424.44
2019-05-20T13:20:38.316Z,99428.71
2019-05-20T13:23:11.118Z,99421.84
2019-05-20T13:25:40.191Z,99416.81
2019-05-20T13:28:09.806Z,99414.56
2019-05-20T13:30:39.363Z,99419.19
2019-05-20T13:33:09.088Z,99416.25
2019-05-20T13:35:39.600Z,99413.92
2019-05-20T13:38:09.113Z,99407.44
2019-05-20T13:40:46.223Z,99414.76
2019-05-20T13:43:10.386Z,99422.31
2019-05-20T13:45:41.026Z,99420.30
2019-05-20T13:48:11.525Z,99421.97
2019-05-20T13:50:40.999Z,99422.05
2019-05-20T13:53:10.559Z,99418.58
2019-05-20T13:55:40.058Z,99413.55
2019-05-20T13:58:09.922Z,99412.06
2019-05-20T14:00:39.392Z,99408.98
2019-05-20T14:03:08.990Z,99399.87
2019-05-20T14:05:38.504Z,99402.36
2019-05-20T14:08:08.087Z,99403.99
2019-05-20T14:10:38.073Z,99395.30
2019-05-20T14:13:07.527Z,99390.64
2019-05-20T14:15:37.211Z,99385.41
2019-05-20T14:18:06.777Z,99373.83
2019-05-20T14:20:36.381Z,99372.01
2019-05-20T14:23:06.280Z,99367.86
2019-05-20T14:25:35.759Z,99361.49
2019-05-20T14:28:05.355Z,99361.34
2019-05-20T14:30:35.933Z,99354.71
2019-05-20T14:33:05.884Z,99344.62
2019-05-20T14:35:35.696Z,99341.30
2019-05-20T14:38:05.197Z,99339.27
2019-05-20T14:40:34.819Z,99328.66
2019-05-20T14:43:04.403Z,99334.06
2019-05-20T14:45:33.884Z,99331.83
2019-05-20T14:48:03.641Z,99318.70
2019-05-20T14:50:33.213Z,99321.42
2019-05-20T14:53:02.818Z,99309.08
2019-05-20T14:55:41.867Z,99313.61
2019-05-20T14:58:03.504Z,99320.05
2019-05-20T15:00:33.968Z,99330.08
2019-05-20T15:03:03.786Z,99339.54
2019-05-20T15:05:33.408Z,99338.95
2019-05-20T15:08:02.948Z,99346.44
2019-05-20T15:10:32.719Z,99335.98
2019-05-20T15:13:02.229Z,99331.61
2019-05-20T15:15:33.354Z,99338.91
2019-05-20T15:18:02.805Z,99328.75
2019-05-20T15:20:32.380Z,99336.36
2019-05-20T15:23:01.820Z,99334.95
2019-05-20T15:25:32.628Z,99343.70
2019-05-20T15:28:03.279Z,99352.23
2019-05-20T15:30:32.803Z,99356.16
2019-05-20T15:33:02.575Z,99359.42
2019-05-20T15:35:32.468Z,99359.20
2019-05-20T15:38:01.963Z,99351.77
2019-05-20T15:40:31.419Z,99354.55
2019-05-20T15:43:01.125Z,99346.80
2019-05-20T15:45:30.610Z,99354.02
2019-05-20T15:48:00.594Z,99352.38
2019-05-20T15:50:30.399Z,99367.17
2019-05-20T15:52:59.926Z,99368.25
2019-05-20T15:55:29.409Z,99361.46
2019-05-20T15:57:58.964Z,99362.95
2019-05-20T16:00:28.534Z,99373.04
2019-05-20T16:02:58.289Z,99369.64
2019-05-20T16:05:27.865Z,99369.91
2019-05-20T16:07:57.325Z,99379.03
2019-05-20T16:10:26.812Z,99401.70
2019-05-20T16:12:56.266Z,99411.75
2019-05-20T16:15:25.945Z,99453.70
2019-05-20T16:17:55.721Z,99445.08
2019-05-20T16:20:25.313Z,99453.95
2019-05-20T16:22:54.775Z,99463.91
2019-05-20T16:25:24.554Z,99454.37
2019-05-20T16:27:54.592Z,99457.41
2019-05-20T16:30:25.893Z,99459.27
2019-05-20T16:32:55.348Z,99451.03
2019-05-20T16:35:24.851Z,99444.48
2019-05-20T16:37:54.578Z,99445.23
2019-05-20T16:40:24.643Z,99447.93
2019-05-20T16:42:54.160Z,99444.59
2019-05-20T16:45:24.269Z,99460.00
2019-05-20T16:47:54.147Z,99462.05
2019-05-20T16:50:24.056Z,99476.20
2019-05-20T16:52:53.620Z,99483.90
2019-05-20T16:55:23.157Z,99467.17
2019-05-20T16:57:52.778Z,99455.73
2019-05-20T17:00:31.391Z,99448.47
2019-05-20T17:02:53.624Z,99446.61
2019-05-20T17:05:23.611Z,99433.71
2019-05-20T17:07:53.431Z,99433.71
2019-05-20T17:10:23.003Z,99436.30
2019-05-20T17:12:52.842Z,99439.73
2019-05-20T17:15:22.445Z,99433.28
2019-05-20T17:17:52.359Z,99429.89
2019-05-20T17:20:22.066Z,99420.69
2019-05-20T17:22:51.736Z,99425.89
2019-05-20T17:25:21.478Z,99417.27
2019-05-20T17:27:51.126Z,99417.95
2019-05-20T17:30:20.678Z,99412.47
2019-05-20T17:32:51.141Z,99416.78
2019-05-20T17:35:21.337Z,99407.41
2019-05-20T17:37:54.710Z,99392.67
2019-05-20T17:40:29.692Z,99395.78
2019-05-20T17:42:59.695Z,99392.58
2019-05-20T17:45:29.651Z,99401.01
2019-05-20T17:47:59.311Z,99418.03
2019-05-20T17:50:29.263Z,99423.33
2019-05-20T17:52:58.871Z,99430.48
2019-05-20T17:55:29.577Z,99443.06
2019-05-20T17:58:00.348Z,99442.73
2019-05-20T18:00:29.910Z,99446.20
2019-05-20T18:02:59.486Z,99455.12
2019-05-20T18:05:28.958Z,99468.13
2019-05-20T18:07:58.872Z,99478.02
2019-05-20T18:10:28.408Z,99483.44
2019-05-20T18:12:57.915Z,99483.08
2019-05-20T18:15:27.571Z,99491.83
2019-05-20T18:17:57.134Z,99487.78
2019-05-20T18:20:26.675Z,99490.39
2019-05-20T18:22:56.255Z,99493.84
2019-05-20T18:25:25.710Z,99488.48
2019-05-20T18:27:55.215Z,99484.84
2019-05-20T18:30:26.089Z,99478.10
2019-05-20T18:32:55.998Z,99469.45
2019-05-20T18:35:25.517Z,99496.26
2019-05-20T18:37:55.011Z,99482.94
2019-05-20T18:40:24.543Z,99457.39
2019-05-20T18:42:54.043Z,99448.79
2019-05-20T18:45:23.934Z,99451.01
2019-05-20T18:47:53.442Z,99460.31
2019-05-20T18:50:22.999Z,99451.41
2019-05-20T18:52:52.526Z,99453.11
2019-05-20T18:55:22.028Z,99454.84
2019-05-20T18:57:51.785Z,99445.80
2019-05-20T19:00:22.424Z,99432.83
2019-05-20T19:02:53.772Z,99438.61
2019-05-20T19:05:23.889Z,99434.08
2019-05-20T19:07:53.738Z,99434.98
2019-05-20T19:10:24.470Z,99443.78
2019-05-20T19:12:56.587Z,99450.02
2019-05-20T19:15:26.643Z,99456.70
2019-05-20T19:17:56.956Z,99458.41
2019-05-20T19:20:27.680Z,99465.55
2019-05-20T19:22:58.843Z,99470.13
2019-05-20T19:25:37.338Z,99469.36
2019-05-20T19:27:59.907Z,99472.74
2019-05-20T19:30:29.475Z,99473.05
2019-05-20T19:32:59.141Z,99469.26
2019-05-20T19:35:28.720Z,99467.55
2019-05-20T19:37:58.592Z,99471.67
2019-05-20T19:40:28.273Z,99490.33
2019-05-20T19:42:57.949Z,99484.77
2019-05-20T19:45:27.570Z,99479.78
2019-05-20T19:47:57.227Z,99480.22
2019-05-20T19:50:27.139Z,99478.31
2019-05-20T19:52:56.720Z,99471.58
2019-05-20T19:55:26.239Z,99463.61
2019-05-20T19:57:55.819Z,99465.85
2019-05-20T20:00:25.547Z,99463.34
2019-05-20T20:02:55.081Z,99460.30
2019-05-20T20:05:27.505Z,99459.84
2019-05-20T20:07:57.970Z,99449.60
2019-05-20T20:10:28.347Z,99445.53
2019-05-20T20:12:58.457Z,99444.14
2019-05-20T20:15:28.662Z,99434.70
2019-05-20T20:17:59.047Z,99439.42
2019-05-20T20:20:28.814Z,99432.55
2019-05-20T20:22:58.692Z,99431.55
2019-05-20T20:25:28.991Z,99439.17
2019-05-20T20:27:59.196Z,99436.64
2019-05-20T20:30:28.787Z,99440.20
2019-05-20T20:32:58.565Z,99446.00
2019-05-20T20:35:37.568Z,99445.66
2019-05-20T20:37:59.956Z,99445.28
2019-05-20T20:40:30.388Z,99441.47
2019-05-20T20:43:00.215Z,99444.37
2019-05-20T20:45:30.597Z,99452.55
2019-05-20T20:48:00.527Z,99454.84
2019-05-20T20:50:31.126Z,99451.72
2019-05-20T20:53:00.624Z,99455.22
2019-05-20T20:55:30.092Z,99455.22
2019-05-20T20:57:59.716Z,99449.00
2019-05-20T21:00:30.564Z,99450.28
2019-05-20T21:03:00.357Z,99447.95
2019-05-20T21:05:30.334Z,99446.16
2019-05-20T21:07:59.821Z,99448.38
2019-05-20T21:10:29.289Z,99437.69
2019-05-20T21:12:59.153Z,99436.42
2019-05-20T21:15:28.601Z,99447.61
2019-05-20T21:17:58.096Z,99440.92
2019-05-20T21:20:27.553Z,99431.13
2019-05-20T21:22:57.083Z,99428.48
2019-05-20T21:25:26.619Z,99424.92
2019-05-20T21:27:56.261Z,99438.70
2019-05-20T21:30:26.078Z,99424.05
2019-05-20T21:33:08.152Z,99420.97
2019-05-20T21:35:26.744Z,99428.59
2019-05-20T21:37:56.191Z,99423.64
2019-05-20T21:40:26.046Z,99422.73
2019-05-20T21:42:55.508Z,99432.95
2019-05-20T21:45:25.086Z,99429.87
2019-05-20T21:47:54.533Z,99427.15
2019-05-20T21:50:24.322Z,99427.55
2019-05-20T21:52:53.820Z,99427.06
2019-05-20T21:55:23.335Z,99429.80
2019-05-20T21:57:52.874Z,99421.78
2019-05-20T22:00:24.202Z,99439.16
2019-05-20T22:02:55.277Z,99441.84
2019-05-20T22:05:24.787Z,99444.10
2019-05-20T22:07:54.278Z,99440.56
2019-05-20T22:10:23.850Z,99436.19
2019-05-20T22:12:53.722Z,99436.69
2019-05-20T22:15:23.179Z,99430.95
2019-05-20T22:17:52.684Z,99436.19
2019-05-20T22:20:22.150Z,99429.61
2019-05-20T22:22:55.974Z,99426.55
2019-05-20T22:25:25.444Z,99429.61
2019-05-20T22:27:54.944Z,99436.69
2019-05-20T22:30:24.489Z,99427.83
2019-05-20T22:32:53.984Z,99428.84
2019-05-20T22:35:23.436Z,99426.03
2019-05-20T22:37:53.011Z,99416.52
2019-05-20T22:40:22.631Z,99421.33
2019-05-20T22:42:52.127Z,99413.20
2019-05-20T22:45:21.660Z,99415.10
2019-05-20T22:47:51.444Z,99410.21
2019-05-20T22:50:20.910Z,99405.86
2019-05-20T22:52:51.998Z,99404.25
2019-05-20T22:55:21.636Z,99406.81
2019-05-20T22:57:51.089Z,99409.81
2019-05-20T23:00:20.743Z,99407.64
2019-05-20T23:02:50.618Z,99410.27
2019-05-20T23:05:20.126Z,99405.31
2019-05-20T23:07:49.593Z,99413.38
2019-05-20T23:10:19.368Z,99421.88
2019-05-20T23:12:48.823Z,99413.38
2019-05-20T23:15:18.316Z,99413.31
2019-05-20T23:17:47.855Z,99411.55
2019-05-20T23:20:17.781Z,99408.82
2019-05-20T23:22:47.291Z,99411.04
2019-05-20T23:25:16.816Z,99407.43
2019-05-20T23:27:46.322Z,99394.96
2019-05-20T23:30:16.472Z,99401.19
2019-05-20T23:32:46.028Z,99401.19
2019-05-20T23:35:15.598Z,99402.92
2019-05-20T23:37:45.166Z,99400.75
2019-05-20T23:40:14.625Z,99407.86
2019-05-20T23:42:44.276Z,99402.02
2019-05-20T23:45:14.233Z,99413.98
2019-05-20T23:47:43.794Z,99413.09
2019-05-20T23:50:13.482Z,99414.48
2019-05-20T23:52:43.111Z,99414.54
2019-05-20T23:55:12.743Z,99417.82
2019-05-20T23:57:42.260Z,99421.55
